Normandy, Florida
Current Conditions -  °F | °C
As of 8:53 AM on Friday 31 Oct 2014 (Local Time) from KMIA Reporting Station
Few Clouds Few Clouds  
Wind Chill: 75°   Ceiling: Unl
Heat Index: 75°   Visibility: 10mi
Dew Point: 70°   Wind: 3mph
Humidity: 84%   Direction: 240°WSW
Pressure: 29.87"   Gusts: NA
Location:  25.8619°N, 80.1259°W
Report Text: KMIA 311253Z 24003KT 10SM FEW030 24/21 A2987 RMK AO2 SLP115 T02390211
Loading
Personal Weather Stations






























Interactive Weather Map
Tropical Storm Tracking
New forecast layout! Learn more

10-Day Weather Forecast

Advertisements
Track Severe Weather on mobile